Flugplatz Berlin-Schönefeld International

Bericht für EDDB

vom 28.06. um 23:20 UTC

Wind 3 kt aus 130°

Sichtweite 400 m

Nebel

keine Wolken

Temperatur 18.0°C

Taupunkt 17.0°C

Luftfeuchtigkeit 94%

Luftdruck 996 hPa

EDDB 282320Z 13003KT 0400 R07L/0600V0900D R25L/0450N FG NSC 18/17 Q0996 BECMG 0300 FG

Prognose für EDDB

vom 28.06. um 23:00 UTC

Zwischen 00:00 UTC und 00:00 UTC

Wind 4 kt aus 280°

Sichtweite 3000 m

feuchter Dunst

gering bewölkt in 1000 ft


Zwischen 00:00 und 03:00 UTC übergehend zu

Wind 4 kt aus 280°

Sichtweite 800 m

Nebel

gering bewölkt in 1000 ft


Zwischen 00:00 UTC und 05:00 UTC zeitweise

Sichtweite 200 m

Nebel

aufgebrochene Bewölkung in 100 ft


Zwischen 05:00 und 08:00 UTC übergehend zu

Wind 4 kt aus 280°

Sichtweite 5000 m

feuchter Dunst

aufgebrochene Bewölkung in 1000 ft


Zwischen 08:00 und 10:00 UTC übergehend zu

Wind 10 kt aus 290°

Sichtweite 5000 m

feuchter Dunst

aufgebrochene Bewölkung in 1000 ft


Zwischen 10:00 UTC und 15:00 UTC zeitweise

Sichtweite 2500 m

Regenschauer

aufgebrochene Bewölkung in 600 ft

aufgebrochene Bewölkung in 2000 ft


Zwischen 10:00 UTC und 15:00 UTC zeitweise mit einer Wahrscheinlichkeit von 30%

Code: TSRA

TAF EDDB 282300Z 2900/2924 28004KT 3000 BR FEW010 BECMG 2900/2903 0800 FG TEMPO 2900/2905 0200 FG BKN001 BECMG 2905/2908 5000 BR BKN010 BECMG 2908/2910 29010KT TEMPO 2910/2915 2500 SHRA BKN006 BKN020CB PROB30 TEMPO 2910/2915 TSRA
Impressum